createdAt,value
2019-03-05T00:01:19.150Z,4.90
2019-03-05T00:03:49.627Z,5.35
2019-03-05T00:06:19.709Z,5.25
2019-03-05T00:08:49.813Z,3.72
2019-03-05T00:11:19.974Z,6.20
2019-03-05T00:13:49.992Z,3.52
2019-03-05T00:16:20.070Z,5.08
2019-03-05T00:18:50.098Z,3.77
2019-03-05T00:21:20.130Z,6.30
2019-03-05T00:24:15.401Z,3.95
2019-03-05T00:26:46.111Z,4.30
2019-03-05T00:29:32.903Z,4.03
2019-03-05T00:32:03.017Z,4.00
2019-03-05T00:34:47.438Z,5.37
2019-03-05T00:37:30.175Z,5.95
2019-03-05T00:40:11.644Z,3.92
2019-03-05T00:43:32.366Z,4.37
2019-03-05T00:46:41.667Z,3.50
2019-03-05T00:49:53.132Z,4.08
2019-03-05T00:53:22.152Z,2.92
2019-03-05T00:56:22.242Z,5.85
2019-03-05T00:59:16.786Z,3.90
2019-03-05T01:02:12.763Z,6.12
2019-03-05T01:05:10.079Z,3.62
2019-03-05T01:07:40.210Z,7.65
2019-03-05T01:10:12.695Z,3.40
2019-03-05T01:12:42.821Z,4.60
2019-03-05T01:15:12.844Z,5.53
2019-03-05T01:17:42.918Z,4.35
2019-03-05T01:20:12.986Z,6.45
2019-03-05T01:22:43.216Z,5.78
2019-03-05T01:25:28.575Z,5.20
2019-03-05T01:27:58.621Z,4.65
2019-03-05T01:30:46.935Z,5.20
2019-03-05T01:33:17.050Z,7.53
2019-03-05T01:35:57.279Z,5.25
2019-03-05T01:38:28.582Z,4.80
2019-03-05T01:41:03.466Z,5.78
2019-03-05T01:43:33.693Z,7.35
2019-03-05T01:46:03.821Z,4.65
2019-03-05T01:48:33.917Z,5.25
2019-03-05T01:51:03.919Z,4.72
2019-03-05T01:53:34.027Z,8.05
2019-03-05T01:56:04.055Z,4.47
2019-03-05T01:58:34.115Z,10.75
2019-03-05T02:01:05.499Z,4.33
2019-03-05T02:03:36.671Z,8.48
2019-03-05T02:06:06.757Z,6.28
2019-03-05T02:08:36.779Z,4.10
2019-03-05T02:11:06.760Z,4.70
2019-03-05T02:13:36.870Z,8.43
2019-03-05T02:16:06.982Z,5.70
2019-03-05T02:18:36.997Z,9.20
2019-03-05T02:21:07.011Z,7.17
2019-03-05T02:23:46.395Z,8.80
2019-03-05T02:26:47.435Z,6.37
2019-03-05T02:29:50.404Z,9.23
2019-03-05T02:32:51.403Z,7.95
2019-03-05T02:35:53.131Z,8.05
2019-03-05T02:38:38.412Z,5.37
2019-03-05T02:41:49.168Z,9.63
2019-03-05T02:44:35.300Z,5.53
2019-03-05T02:47:36.915Z,6.72
2019-03-05T02:50:50.854Z,7.15
2019-03-05T02:53:53.296Z,7.85
2019-03-05T02:56:54.646Z,8.45
2019-03-05T02:59:24.762Z,8.25
2019-03-05T03:02:16.694Z,8.15
2019-03-05T03:04:49.338Z,10.88
2019-03-05T03:07:19.526Z,8.60
2019-03-05T03:10:10.264Z,9.13
2019-03-05T03:12:40.412Z,6.22
2019-03-05T03:15:13.602Z,14.30
2019-03-05T03:17:43.971Z,7.87
2019-03-05T03:20:16.017Z,8.08
2019-03-05T03:22:47.364Z,9.20
2019-03-05T03:25:21.987Z,7.15
2019-03-05T03:27:52.382Z,8.15
2019-03-05T03:30:24.843Z,9.43
2019-03-05T03:32:54.975Z,9.43
2019-03-05T03:35:25.027Z,4.62
2019-03-05T03:37:56.434Z,5.65
2019-03-05T03:40:26.461Z,8.03
2019-03-05T03:42:56.496Z,8.30
2019-03-05T03:45:27.405Z,11.03
2019-03-05T03:47:57.496Z,7.85
2019-03-05T03:50:27.604Z,8.33
2019-03-05T03:52:57.715Z,10.60
2019-03-05T03:55:27.829Z,13.72
2019-03-05T03:57:57.917Z,14.45
2019-03-05T04:00:28.036Z,10.70
2019-03-05T04:02:58.120Z,6.97
2019-03-05T04:05:28.798Z,9.08
2019-03-05T04:07:58.863Z,7.12
2019-03-05T04:10:29.746Z,7.92
2019-03-05T04:12:59.806Z,7.42
2019-03-05T04:15:30.076Z,8.65
2019-03-05T04:18:00.066Z,6.30
2019-03-05T04:20:42.181Z,7.72
2019-03-05T04:23:12.322Z,6.58
2019-03-05T04:25:42.387Z,4.95
2019-03-05T04:28:12.394Z,8.33
2019-03-05T04:30:42.458Z,7.33
2019-03-05T04:33:12.454Z,7.10
2019-03-05T04:35:42.488Z,8.95
2019-03-05T04:38:12.462Z,6.15
2019-03-05T04:40:42.483Z,43.65
2019-03-05T04:43:13.328Z,6.85
2019-03-05T04:45:57.415Z,8.75
2019-03-05T04:48:27.686Z,11.83
2019-03-05T04:51:03.690Z,6.83
2019-03-05T04:53:33.695Z,7.70
2019-03-05T04:56:03.743Z,7.10
2019-03-05T04:58:33.847Z,8.25
2019-03-05T05:01:03.890Z,8.93
2019-03-05T05:03:33.967Z,8.35
2019-03-05T05:06:04.003Z,7.95
2019-03-05T05:08:34.078Z,7.83
2019-03-05T05:11:05.190Z,7.53
2019-03-05T05:13:35.213Z,9.83
2019-03-05T05:16:05.482Z,7.58
2019-03-05T05:18:35.494Z,10.80
2019-03-05T05:21:06.611Z,9.55
2019-03-05T05:23:36.647Z,9.73
2019-03-05T05:26:06.684Z,7.45
2019-03-05T05:28:36.791Z,7.70
2019-03-05T05:31:06.898Z,6.42
2019-03-05T05:33:37.034Z,8.05
2019-03-05T05:36:07.097Z,6.80
2019-03-05T05:38:37.169Z,6.42
2019-03-05T05:41:07.146Z,9.30
2019-03-05T05:43:37.176Z,6.87
2019-03-05T05:46:07.286Z,9.30
2019-03-05T05:48:37.298Z,6.12
2019-03-05T05:51:07.314Z,6.92
2019-03-05T05:53:38.728Z,9.78
2019-03-05T05:56:08.752Z,10.35
2019-03-05T05:58:38.866Z,7.42
2019-03-05T06:01:12.058Z,11.20
2019-03-05T06:03:43.716Z,11.12
2019-03-05T06:06:13.710Z,8.65
2019-03-05T06:08:43.911Z,10.10
2019-03-05T06:11:14.059Z,6.28
2019-03-05T06:13:44.110Z,8.63
2019-03-05T06:16:14.096Z,6.35
2019-03-05T06:18:44.106Z,10.30
2019-03-05T06:21:14.114Z,12.15
2019-03-05T06:23:44.313Z,11.88
2019-03-05T06:26:14.298Z,13.20
2019-03-05T06:28:44.438Z,10.00
2019-03-05T06:31:14.503Z,8.75
2019-03-05T06:33:44.533Z,12.13
2019-03-05T06:36:14.939Z,7.62
2019-03-05T06:38:44.956Z,7.00
2019-03-05T06:41:15.003Z,8.75
2019-03-05T06:43:45.054Z,8.03
2019-03-05T06:46:15.019Z,6.97
2019-03-05T06:48:45.043Z,6.80
2019-03-05T06:51:15.055Z,6.60
2019-03-05T06:53:45.151Z,7.90
2019-03-05T06:56:15.195Z,7.92
2019-03-05T06:58:45.327Z,8.98
2019-03-05T07:01:15.333Z,9.63
2019-03-05T07:03:45.388Z,8.15
2019-03-05T07:07:04.868Z,7.33
2019-03-05T07:09:56.079Z,6.25
2019-03-05T07:13:11.562Z,6.37
2019-03-05T07:16:05.742Z,9.00
2019-03-05T07:18:42.259Z,6.72
2019-03-05T07:22:07.952Z,6.75
2019-03-05T07:24:46.043Z,7.50
2019-03-05T07:27:34.501Z,7.15
2019-03-05T07:30:21.351Z,8.85
2019-03-05T07:32:51.531Z,3.85
2019-03-05T07:35:24.299Z,7.47
2019-03-05T07:37:54.683Z,5.55
2019-03-05T07:40:24.712Z,8.75
2019-03-05T07:42:54.704Z,6.20
2019-03-05T07:45:24.735Z,6.55
2019-03-05T07:47:54.716Z,6.35
2019-03-05T07:50:25.019Z,4.37
2019-03-05T07:52:54.998Z,8.08
2019-03-05T07:55:25.049Z,6.67
2019-03-05T07:57:55.055Z,5.85
2019-03-05T08:00:26.239Z,8.45
2019-03-05T08:02:56.312Z,6.03
2019-03-05T08:05:26.371Z,7.85
2019-03-05T08:08:26.395Z,5.30
2019-03-05T08:10:48.439Z,4.85
2019-03-05T08:13:49.972Z,4.65
2019-03-05T08:16:24.853Z,6.95
2019-03-05T08:18:56.563Z,8.20
2019-03-05T08:21:34.314Z,4.08
2019-03-05T08:24:04.543Z,14.45
2019-03-05T08:26:34.599Z,5.03
2019-03-05T08:29:04.591Z,7.67
2019-03-05T08:31:34.607Z,6.78
2019-03-05T08:34:04.725Z,4.87
2019-03-05T08:36:34.763Z,6.10
2019-03-05T08:39:07.262Z,7.05
2019-03-05T08:41:37.348Z,6.22
2019-03-05T08:44:07.415Z,7.67
2019-03-05T08:46:37.508Z,8.93
2019-03-05T08:49:07.519Z,6.37
2019-03-05T08:51:37.635Z,6.35
2019-03-05T08:54:07.979Z,6.12
2019-03-05T08:56:37.966Z,6.00
2019-03-05T08:59:07.988Z,12.05
2019-03-05T09:01:38.027Z,11.40
2019-03-05T09:04:08.071Z,18.75
2019-03-05T09:06:38.107Z,9.85
2019-03-05T09:09:09.924Z,8.78
2019-03-05T09:11:42.227Z,7.75
2019-03-05T09:14:12.219Z,7.42
2019-03-05T09:16:42.922Z,7.22
2019-03-05T09:19:12.951Z,6.10
2019-03-05T09:21:43.010Z,9.40
2019-03-05T09:24:12.998Z,8.30
2019-03-05T09:26:50.814Z,9.58
2019-03-05T09:29:14.755Z,9.98
2019-03-05T09:31:47.161Z,10.18
2019-03-05T09:34:17.182Z,7.03
2019-03-05T09:36:50.752Z,3.30
2019-03-05T09:39:18.930Z,9.50
2019-03-05T09:41:49.083Z,9.65
2019-03-05T09:44:19.059Z,7.53
2019-03-05T09:46:49.076Z,11.18
2019-03-05T09:49:20.231Z,4.33
2019-03-05T09:51:55.371Z,8.20
2019-03-05T09:54:25.379Z,8.30
2019-03-05T09:56:55.406Z,5.05
2019-03-05T09:59:25.386Z,4.12
2019-03-05T10:01:56.551Z,6.53
2019-03-05T10:04:26.783Z,5.42
2019-03-05T10:06:56.842Z,7.28
2019-03-05T10:09:26.892Z,5.17
2019-03-05T10:11:57.131Z,5.05
2019-03-05T10:14:28.263Z,4.92
2019-03-05T10:16:58.307Z,6.95
2019-03-05T10:19:28.311Z,7.00
2019-03-05T10:21:58.331Z,8.20
2019-03-05T10:24:28.330Z,9.33
2019-03-05T10:26:58.342Z,5.20
2019-03-05T10:29:28.342Z,6.17
2019-03-05T10:31:58.366Z,4.97
2019-03-05T10:34:28.442Z,3.27
2019-03-05T10:36:59.579Z,3.65
2019-03-05T10:39:31.770Z,2.87
2019-03-05T10:42:05.210Z,5.25
2019-03-05T10:44:35.418Z,3.67
2019-03-05T10:47:05.434Z,1.70
2019-03-05T10:49:35.514Z,1.07
2019-03-05T10:52:05.612Z,1.85
2019-03-05T10:54:41.366Z,2.70
2019-03-05T10:57:13.090Z,1.60
2019-03-05T10:59:44.787Z,2.10
2019-03-05T11:02:16.618Z,2.40
2019-03-05T11:04:46.675Z,2.72
2019-03-05T11:07:16.719Z,3.22
2019-03-05T11:09:48.198Z,2.67
2019-03-05T11:12:18.233Z,2.95
2019-03-05T11:14:48.283Z,4.80
2019-03-05T11:17:18.417Z,3.20
2019-03-05T11:19:48.563Z,4.37
2019-03-05T11:22:18.626Z,6.12
2019-03-05T11:24:48.691Z,3.42
2019-03-05T11:27:18.740Z,3.77
2019-03-05T11:29:49.885Z,3.52
2019-03-05T11:32:20.046Z,4.45
2019-03-05T11:34:50.169Z,4.15
2019-03-05T11:37:20.305Z,3.85
2019-03-05T11:39:50.404Z,3.70
2019-03-05T11:42:20.885Z,4.60
2019-03-05T11:45:03.847Z,4.42
2019-03-05T11:47:22.667Z,4.15
2019-03-05T11:49:52.754Z,2.92
2019-03-05T11:52:22.742Z,4.05
2019-03-05T11:54:52.906Z,3.15
2019-03-05T11:57:24.142Z,6.15
2019-03-05T11:59:54.187Z,2.50
2019-03-05T12:02:24.279Z,2.75
2019-03-05T12:04:54.386Z,3.52
2019-03-05T12:07:24.379Z,3.52
2019-03-05T12:09:54.439Z,5.37
2019-03-05T12:12:24.418Z,3.17
2019-03-05T12:14:54.435Z,4.37
2019-03-05T12:17:24.435Z,13.00
2019-03-05T12:19:54.550Z,11.93
2019-03-05T12:22:27.956Z,2.37
2019-03-05T12:24:57.691Z,2.98
2019-03-05T12:27:27.995Z,4.03
2019-03-05T12:29:58.044Z,2.80
2019-03-05T12:32:28.156Z,3.40
2019-03-05T12:34:58.235Z,6.40
2019-03-05T12:37:28.231Z,3.22
2019-03-05T12:39:58.237Z,4.87
2019-03-05T12:42:28.224Z,2.15
2019-03-05T12:44:58.263Z,3.35
2019-03-05T12:47:28.265Z,4.75
2019-03-05T12:49:58.287Z,3.20
2019-03-05T12:52:28.392Z,2.08
2019-03-05T12:54:58.467Z,3.25
2019-03-05T12:57:28.483Z,3.17
2019-03-05T12:59:58.566Z,2.42
2019-03-05T13:02:28.547Z,4.58
2019-03-05T13:04:58.572Z,2.85
2019-03-05T13:07:28.573Z,2.55
2019-03-05T13:09:58.615Z,4.45
2019-03-05T13:12:28.675Z,2.35
2019-03-05T13:14:58.776Z,3.00
2019-03-05T13:17:28.776Z,4.10
2019-03-05T13:19:58.802Z,2.20
2019-03-05T13:22:30.016Z,3.27
2019-03-05T13:25:00.354Z,2.62
2019-03-05T13:27:30.519Z,2.22
2019-03-05T13:30:00.545Z,2.58
2019-03-05T13:32:31.867Z,2.95
2019-03-05T13:35:01.860Z,2.65
2019-03-05T13:37:32.091Z,1.65
2019-03-05T13:40:02.126Z,3.55
2019-03-05T13:42:33.430Z,2.20
2019-03-05T13:45:05.306Z,4.25
2019-03-05T13:47:41.537Z,2.20
2019-03-05T13:50:37.439Z,2.65
2019-03-05T13:54:05.849Z,2.98
2019-03-05T13:57:18.790Z,2.62
2019-03-05T13:59:50.315Z,2.72
2019-03-05T14:02:31.439Z,1.65
2019-03-05T14:06:00.712Z,2.15
2019-03-05T14:09:10.055Z,1.17
2019-03-05T14:11:40.472Z,1.47
2019-03-05T14:14:16.615Z,1.82
2019-03-05T14:16:47.814Z,1.65
2019-03-05T14:19:17.908Z,1.10
2019-03-05T14:21:48.032Z,1.07
2019-03-05T14:24:18.030Z,1.50
2019-03-05T14:26:48.172Z,1.70
2019-03-05T14:29:18.161Z,1.60
2019-03-05T14:31:48.198Z,2.10
2019-03-05T14:34:19.329Z,2.15
2019-03-05T14:36:49.544Z,2.17
2019-03-05T14:39:23.830Z,4.58
2019-03-05T14:41:54.476Z,1.50
2019-03-05T14:44:25.065Z,2.42
2019-03-05T14:46:59.628Z,3.65
2019-03-05T14:49:29.979Z,3.12
2019-03-05T14:52:00.101Z,1.67
2019-03-05T14:54:30.196Z,4.12
2019-03-05T14:57:00.667Z,2.27
2019-03-05T14:59:31.962Z,3.62
2019-03-05T15:02:03.064Z,3.62
2019-03-05T15:04:33.415Z,2.30
2019-03-05T15:07:07.714Z,1.75
2019-03-05T15:09:37.817Z,1.57
2019-03-05T15:12:08.057Z,2.17
2019-03-05T15:14:38.158Z,1.50
2019-03-05T15:17:08.302Z,2.80
2019-03-05T15:19:39.654Z,2.62
2019-03-05T15:22:09.758Z,5.45
2019-03-05T15:24:39.864Z,10.70
2019-03-05T15:27:10.042Z,3.80
2019-03-05T15:29:40.150Z,3.35
2019-03-05T15:32:10.297Z,2.55
2019-03-05T15:34:40.359Z,2.05
2019-03-05T15:37:10.486Z,3.02
2019-03-05T15:39:40.596Z,3.42
2019-03-05T15:42:10.695Z,2.20
2019-03-05T15:44:40.858Z,3.40
2019-03-05T15:47:10.945Z,2.45
2019-03-05T15:49:41.087Z,2.77
2019-03-05T15:52:11.269Z,2.62
2019-03-05T15:54:41.380Z,2.80
2019-03-05T15:57:11.415Z,1.98
2019-03-05T15:59:41.544Z,3.50
2019-03-05T16:02:11.736Z,1.47
2019-03-05T16:04:43.760Z,1.65
2019-03-05T16:07:13.479Z,1.92
2019-03-05T16:09:44.015Z,3.87
2019-03-05T16:12:14.203Z,1.15
2019-03-05T16:14:44.314Z,3.50
2019-03-05T16:17:14.407Z,2.22
2019-03-05T16:19:44.500Z,2.20
2019-03-05T16:22:18.343Z,4.35
2019-03-05T16:24:46.371Z,5.17
2019-03-05T16:27:16.467Z,6.20
2019-03-05T16:29:46.555Z,2.22
2019-03-05T16:32:31.991Z,1.25
2019-03-05T16:35:23.911Z,3.22
2019-03-05T16:38:15.020Z,4.87
2019-03-05T16:41:02.474Z,2.60
2019-03-05T16:43:51.843Z,3.12
2019-03-05T16:46:29.618Z,3.92
2019-03-05T16:49:21.855Z,2.05
2019-03-05T16:52:17.011Z,4.05
2019-03-05T16:55:18.091Z,1.87
2019-03-05T16:58:07.235Z,1.60
2019-03-05T17:00:55.507Z,2.75
2019-03-05T17:03:37.748Z,3.75
2019-03-05T17:06:25.794Z,5.62
2019-03-05T17:09:14.917Z,3.45
2019-03-05T17:11:54.792Z,5.33
2019-03-05T17:14:25.002Z,2.77
2019-03-05T17:16:55.183Z,2.75
2019-03-05T17:19:25.386Z,2.22
2019-03-05T17:21:55.513Z,3.70
2019-03-05T17:24:25.783Z,2.77
2019-03-05T17:26:56.725Z,2.77
2019-03-05T17:29:26.831Z,3.42
2019-03-05T17:31:57.221Z,3.37
2019-03-05T17:34:29.137Z,5.92
2019-03-05T17:36:59.246Z,2.95
2019-03-05T17:39:29.571Z,4.67
2019-03-05T17:41:59.850Z,4.85
2019-03-05T17:44:30.398Z,3.92
2019-03-05T17:47:00.591Z,4.53
2019-03-05T17:49:30.855Z,6.05
2019-03-05T17:52:00.975Z,5.47
2019-03-05T17:54:31.267Z,5.95
2019-03-05T17:57:01.453Z,6.67
2019-03-05T17:59:31.766Z,5.97
2019-03-05T18:02:02.047Z,5.75
2019-03-05T18:04:32.475Z,4.62
2019-03-05T18:07:03.878Z,4.95
2019-03-05T18:09:34.094Z,5.72
2019-03-05T18:12:04.232Z,3.83
2019-03-05T18:14:34.356Z,5.83
2019-03-05T18:17:04.568Z,3.50
2019-03-05T18:19:34.678Z,5.15
2019-03-05T18:22:04.980Z,2.62
2019-03-05T18:24:35.050Z,3.47
2019-03-05T18:27:05.175Z,6.58
2019-03-05T18:29:35.715Z,4.22
2019-03-05T18:32:05.762Z,4.45
2019-03-05T18:34:35.928Z,4.45
2019-03-05T18:37:05.990Z,4.20
2019-03-05T18:39:35.969Z,3.65
2019-03-05T18:42:05.972Z,6.30
2019-03-05T18:44:35.958Z,6.72
2019-03-05T18:47:05.968Z,4.30
2019-03-05T18:49:35.986Z,5.00
2019-03-05T18:52:06.444Z,11.93
2019-03-05T18:54:36.505Z,7.40
2019-03-05T18:57:06.682Z,4.03
2019-03-05T18:59:36.687Z,5.33
2019-03-05T19:02:06.955Z,6.75
2019-03-05T19:04:36.959Z,6.87
2019-03-05T19:07:07.031Z,5.20
2019-03-05T19:09:37.015Z,4.35
2019-03-05T19:12:07.111Z,4.62
2019-03-05T19:14:37.078Z,5.40
2019-03-05T19:17:07.252Z,6.20
2019-03-05T19:19:37.218Z,3.40
2019-03-05T19:22:07.210Z,4.62
2019-03-05T19:24:37.195Z,4.15
2019-03-05T19:27:07.343Z,5.08
2019-03-05T19:29:37.334Z,4.45
2019-03-05T19:32:07.363Z,4.90
2019-03-05T19:34:37.357Z,5.35
2019-03-05T19:37:08.114Z,5.33
2019-03-05T19:39:38.111Z,6.03
2019-03-05T19:42:08.143Z,5.03
2019-03-05T19:44:38.126Z,5.97
2019-03-05T19:47:08.140Z,5.08
2019-03-05T19:49:38.211Z,5.65
2019-03-05T19:52:08.268Z,8.03
2019-03-05T19:54:38.283Z,8.75
2019-03-05T19:57:08.396Z,9.75
2019-03-05T19:59:38.425Z,24.55
2019-03-05T20:02:08.559Z,11.55
2019-03-05T20:04:38.580Z,12.25
2019-03-05T20:07:08.564Z,9.38
2019-03-05T20:09:38.574Z,7.37
2019-03-05T20:12:08.895Z,7.15
2019-03-05T20:14:38.965Z,7.67
2019-03-05T20:17:08.963Z,7.62
2019-03-05T20:19:38.971Z,9.85
2019-03-05T20:22:09.035Z,8.58
2019-03-05T20:24:39.046Z,8.40
2019-03-05T20:27:16.049Z,7.33
2019-03-05T20:29:42.423Z,7.85
2019-03-05T20:32:13.495Z,9.00
2019-03-05T20:34:43.808Z,9.55
2019-03-05T20:37:13.859Z,9.68
2019-03-05T20:39:43.957Z,11.38
2019-03-05T20:42:14.078Z,11.73
2019-03-05T20:44:44.247Z,10.13
2019-03-05T20:47:14.397Z,10.50
2019-03-05T20:49:44.635Z,11.60
2019-03-05T20:52:14.709Z,11.03
2019-03-05T20:54:44.842Z,13.30
2019-03-05T20:57:15.031Z,37.38
2019-03-05T20:59:45.215Z,24.05
2019-03-05T21:02:15.250Z,55.92
2019-03-05T21:04:45.540Z,72.22
2019-03-05T21:07:15.527Z,18.12
2019-03-05T21:09:46.012Z,23.20
2019-03-05T21:12:16.011Z,22.00
2019-03-05T21:14:46.023Z,15.38
2019-03-05T21:17:16.091Z,14.28
2019-03-05T21:19:46.326Z,11.18
2019-03-05T21:22:16.391Z,11.28
2019-03-05T21:24:46.386Z,12.65
2019-03-05T21:27:16.366Z,12.13
2019-03-05T21:29:46.483Z,12.05
2019-03-05T21:32:16.764Z,13.75
2019-03-05T21:34:47.072Z,12.50
2019-03-05T21:37:17.090Z,12.82
2019-03-05T21:39:47.092Z,13.55
2019-03-05T21:42:17.066Z,13.05
2019-03-05T21:44:47.076Z,13.98
2019-03-05T21:47:17.058Z,17.30
2019-03-05T21:49:47.027Z,14.15
2019-03-05T21:52:17.047Z,15.32
2019-03-05T21:54:47.311Z,15.75
2019-03-05T21:57:17.408Z,14.38
2019-03-05T21:59:47.519Z,12.03
2019-03-05T22:02:17.528Z,14.58
2019-03-05T22:04:47.541Z,14.55
2019-03-05T22:07:17.619Z,19.20
2019-03-05T22:09:47.687Z,16.73
2019-03-05T22:12:17.683Z,12.85
2019-03-05T22:14:47.663Z,16.07
2019-03-05T22:17:17.665Z,15.38
2019-03-05T22:19:47.628Z,18.30
2019-03-05T22:22:17.652Z,15.28
2019-03-05T22:24:47.706Z,14.58
2019-03-05T22:27:17.795Z,12.70
2019-03-05T22:29:49.018Z,15.32
2019-03-05T22:32:19.013Z,16.60
2019-03-05T22:34:49.089Z,15.38
2019-03-05T22:37:19.164Z,16.52
2019-03-05T22:39:49.147Z,14.13
2019-03-05T22:42:19.219Z,15.75
2019-03-05T22:44:49.276Z,17.05
2019-03-05T22:47:19.299Z,17.60
2019-03-05T22:49:49.451Z,18.30
2019-03-05T22:52:19.722Z,18.30
2019-03-05T22:54:49.774Z,16.50
2019-03-05T22:57:19.867Z,19.67
2019-03-05T22:59:49.842Z,17.73
2019-03-05T23:02:19.944Z,19.92
2019-03-05T23:04:50.290Z,17.92
2019-03-05T23:07:20.476Z,19.30
2019-03-05T23:09:50.625Z,18.67
2019-03-05T23:12:20.634Z,18.02
2019-03-05T23:14:51.159Z,21.80
2019-03-05T23:17:21.435Z,20.15
2019-03-05T23:19:52.498Z,14.90
2019-03-05T23:22:22.710Z,19.25
2019-03-05T23:24:52.687Z,17.50
2019-03-05T23:27:22.882Z,19.27
2019-03-05T23:29:53.018Z,19.55
2019-03-05T23:32:23.175Z,19.82
2019-03-05T23:34:54.590Z,19.37
2019-03-05T23:37:24.979Z,16.07
2019-03-05T23:39:54.983Z,17.95
2019-03-05T23:42:25.487Z,20.60
2019-03-05T23:44:55.567Z,20.08
2019-03-05T23:47:25.544Z,19.80
2019-03-05T23:49:55.621Z,17.30
2019-03-05T23:52:25.623Z,20.48
2019-03-05T23:54:55.636Z,18.27
2019-03-05T23:57:25.631Z,19.40
2019-03-05T23:59:55.640Z,20.90
